createdAt,value
2023-01-30T00:00:57.520Z,148618.34
2023-01-30T00:03:24.103Z,148629.66
2023-01-30T00:05:50.480Z,148658.50
2023-01-30T00:08:16.466Z,148638.41
2023-01-30T00:10:43.882Z,148642.19
2023-01-30T00:13:10.231Z,148625.84
2023-01-30T00:15:36.625Z,148628.41
2023-01-30T00:18:02.610Z,148620.84
2023-01-30T00:20:28.546Z,148595.78
2023-01-30T00:23:00.901Z,148624.59
2023-01-30T00:25:27.684Z,148638.41
2023-01-30T00:27:53.905Z,148634.66
2023-01-30T00:30:20.153Z,148635.91
2023-01-30T00:32:46.168Z,148623.34
2023-01-30T00:35:12.032Z,148647.22
2023-01-30T00:37:37.897Z,148649.72
2023-01-30T00:40:04.305Z,148658.50
2023-01-30T00:42:48.742Z,148672.31
2023-01-30T00:45:33.302Z,148708.69
2023-01-30T00:47:59.676Z,148686.13
2023-01-30T00:50:41.564Z,148688.63
2023-01-30T00:53:12.077Z,148709.94
2023-01-30T00:55:38.551Z,148697.38
2023-01-30T00:58:04.472Z,148735.09
2023-01-30T01:00:30.975Z,148707.44
2023-01-30T01:02:56.902Z,148713.72
2023-01-30T01:05:22.931Z,148718.75
2023-01-30T01:07:48.804Z,148716.25
2023-01-30T01:10:15.958Z,148676.06
2023-01-30T01:12:43.961Z,148696.13
2023-01-30T01:15:11.652Z,148709.94
2023-01-30T01:17:38.419Z,148699.94
2023-01-30T01:20:05.276Z,148709.94
2023-01-30T01:22:31.156Z,148712.44
2023-01-30T01:24:56.971Z,148727.53
2023-01-30T01:27:22.920Z,148718.75
2023-01-30T01:29:48.744Z,148726.28
2023-01-30T01:32:14.598Z,148738.84
2023-01-30T01:34:40.857Z,148750.09
2023-01-30T01:37:07.082Z,148756.41
2023-01-30T01:39:51.415Z,148738.84
2023-01-30T01:42:17.664Z,148740.09
2023-01-30T01:45:08.339Z,148736.34
2023-01-30T01:47:34.651Z,148742.59
2023-01-30T01:50:01.559Z,148733.84
2023-01-30T01:52:28.500Z,148740.09
2023-01-30T01:55:02.348Z,148763.94
2023-01-30T01:57:34.519Z,148770.22
2023-01-30T02:00:12.194Z,148784.00
2023-01-30T02:02:41.313Z,148809.13
2023-01-30T02:05:10.461Z,148797.81
2023-01-30T02:07:46.174Z,148838.00
2023-01-30T02:10:17.169Z,148812.91
2023-01-30T02:12:43.328Z,148804.09
2023-01-30T02:15:09.549Z,148767.69
2023-01-30T02:17:35.375Z,148822.97
2023-01-30T02:20:15.729Z,148863.13
2023-01-30T02:23:15.610Z,148831.72
2023-01-30T02:26:23.459Z,148849.31
2023-01-30T02:29:07.908Z,148850.56
2023-01-30T02:31:49.365Z,148860.63
2023-01-30T02:34:52.458Z,148873.16
2023-01-30T02:37:21.379Z,148861.88
2023-01-30T02:40:10.597Z,148858.06
2023-01-30T02:42:50.862Z,148860.63
2023-01-30T02:45:47.279Z,148869.41
2023-01-30T02:48:16.524Z,148864.38
2023-01-30T02:50:50.414Z,148881.97
2023-01-30T02:53:16.678Z,148895.78
2023-01-30T02:55:42.578Z,148909.56
2023-01-30T02:58:09.860Z,148938.47
2023-01-30T03:00:47.580Z,148900.81
2023-01-30T03:04:03.103Z,148913.38
2023-01-30T03:06:56.593Z,148920.88
2023-01-30T03:09:35.089Z,148951.06
2023-01-30T03:12:14.104Z,148935.97
2023-01-30T03:14:55.465Z,148953.56
2023-01-30T03:17:26.163Z,148940.97
2023-01-30T03:19:53.614Z,148957.31
2023-01-30T03:22:20.957Z,148952.31
2023-01-30T03:24:48.743Z,148958.56
2023-01-30T03:27:14.664Z,148954.81
2023-01-30T03:29:40.492Z,148956.06
2023-01-30T03:32:06.577Z,148978.66
2023-01-30T03:34:32.651Z,148986.22
2023-01-30T03:36:58.637Z,148993.75
2023-01-30T03:39:25.019Z,148982.41
2023-01-30T03:41:52.863Z,148977.41
2023-01-30T03:44:19.256Z,148974.91
2023-01-30T03:46:45.120Z,149005.06
2023-01-30T03:49:10.975Z,148977.41
2023-01-30T03:51:36.991Z,148993.75
2023-01-30T03:54:03.260Z,149008.81
2023-01-30T03:56:30.282Z,149015.09
2023-01-30T03:58:56.343Z,149012.59
2023-01-30T04:01:22.418Z,149011.34
2023-01-30T04:03:48.309Z,149007.56
2023-01-30T04:06:14.503Z,149015.09
2023-01-30T04:08:40.392Z,149046.50
2023-01-30T04:11:06.323Z,149035.19
2023-01-30T04:13:32.143Z,149036.44
2023-01-30T04:16:17.118Z,149032.69
2023-01-30T04:18:42.955Z,149027.66
2023-01-30T04:21:08.881Z,149003.81
2023-01-30T04:23:34.684Z,149013.84
2023-01-30T04:26:00.537Z,149027.66
2023-01-30T04:28:26.555Z,149017.59
2023-01-30T04:30:53.421Z,149020.16
2023-01-30T04:33:19.275Z,149025.16
2023-01-30T04:35:56.410Z,149012.59
2023-01-30T04:38:22.627Z,149002.56
2023-01-30T04:40:53.393Z,149037.75
2023-01-30T04:43:21.337Z,149020.16
2023-01-30T04:45:48.552Z,149023.91
2023-01-30T04:48:15.599Z,149046.50
2023-01-30T04:50:43.325Z,149069.13
2023-01-30T04:53:09.728Z,149037.75
2023-01-30T04:55:36.311Z,149057.84
2023-01-30T04:58:02.802Z,149061.59
2023-01-30T05:00:28.919Z,149044.00
2023-01-30T05:02:57.593Z,149062.84
2023-01-30T05:05:23.937Z,149056.59
2023-01-30T05:07:49.932Z,149071.63
2023-01-30T05:10:16.240Z,149081.69
2023-01-30T05:12:42.232Z,149080.44
2023-01-30T05:15:08.893Z,149101.81
2023-01-30T05:17:34.748Z,149082.94
2023-01-30T05:20:00.593Z,149080.44
2023-01-30T05:22:26.430Z,149111.88
2023-01-30T05:24:52.331Z,149103.06
2023-01-30T05:27:18.223Z,149094.28
2023-01-30T05:29:44.143Z,149096.78
2023-01-30T05:32:12.307Z,149109.38
2023-01-30T05:34:38.098Z,149096.78
2023-01-30T05:37:03.923Z,149082.94
2023-01-30T05:39:29.684Z,149094.28
2023-01-30T05:41:55.556Z,149114.38
2023-01-30T05:44:21.369Z,149145.81
2023-01-30T05:46:47.239Z,149137.00
2023-01-30T05:49:13.124Z,149104.31
2023-01-30T05:51:39.118Z,149119.41
2023-01-30T05:54:05.138Z,149115.63
2023-01-30T05:56:32.624Z,149134.47
2023-01-30T05:59:00.314Z,149142.00
2023-01-30T06:01:27.386Z,149119.41
2023-01-30T06:03:53.548Z,149121.91
2023-01-30T06:06:20.086Z,149153.34
2023-01-30T06:08:46.560Z,149139.50
2023-01-30T06:11:16.518Z,149135.75
2023-01-30T06:13:43.235Z,149145.81
2023-01-30T06:16:11.294Z,149163.41
2023-01-30T06:18:37.804Z,149169.69
2023-01-30T06:21:04.354Z,149179.72
2023-01-30T06:23:30.537Z,149175.94
2023-01-30T06:25:56.599Z,149188.53
2023-01-30T06:28:24.033Z,149198.63
2023-01-30T06:30:50.345Z,149197.31
2023-01-30T06:33:16.663Z,149208.63
2023-01-30T06:35:43.896Z,149197.31
2023-01-30T06:38:11.007Z,149214.91
2023-01-30T06:40:37.694Z,149219.97
2023-01-30T06:43:04.013Z,149222.47
2023-01-30T06:45:30.111Z,149217.47
2023-01-30T06:47:56.258Z,149208.63
2023-01-30T06:50:24.878Z,149246.34
2023-01-30T06:52:52.205Z,149241.34
2023-01-30T06:55:20.905Z,149238.84
2023-01-30T06:57:47.533Z,149242.59
2023-01-30T07:00:18.294Z,149256.44
2023-01-30T07:02:45.132Z,149272.78
2023-01-30T07:05:11.641Z,149256.44
2023-01-30T07:07:38.142Z,149253.94
2023-01-30T07:10:10.937Z,149250.13
2023-01-30T07:12:37.195Z,149267.72
2023-01-30T07:15:04.650Z,149277.81
2023-01-30T07:17:30.484Z,149287.88
2023-01-30T07:19:56.372Z,149297.91
2023-01-30T07:22:22.205Z,149319.28
2023-01-30T07:24:48.039Z,149306.75
2023-01-30T07:27:14.131Z,149299.16
2023-01-30T07:29:40.252Z,149304.19
2023-01-30T07:32:07.249Z,149311.75
2023-01-30T07:34:33.217Z,149333.13
2023-01-30T07:36:59.195Z,149325.59
2023-01-30T07:39:25.128Z,149345.72
2023-01-30T07:41:50.947Z,149319.28
2023-01-30T07:44:16.758Z,149326.88
2023-01-30T07:46:42.590Z,149334.38
2023-01-30T07:49:09.612Z,149348.22
2023-01-30T07:51:35.478Z,149353.25
2023-01-30T07:54:03.252Z,149350.75
2023-01-30T07:56:29.968Z,149372.13
2023-01-30T07:58:56.191Z,149353.25
2023-01-30T08:01:22.600Z,149363.34
2023-01-30T08:03:49.500Z,149394.75
2023-01-30T08:06:16.196Z,149380.94
2023-01-30T08:08:42.414Z,149388.47
2023-01-30T08:11:08.330Z,149390.97
2023-01-30T08:13:34.156Z,149377.19
2023-01-30T08:16:01.105Z,149383.47
2023-01-30T08:18:31.535Z,149385.97
2023-01-30T08:21:01.985Z,149392.25
2023-01-30T08:23:28.027Z,149407.34
2023-01-30T08:25:55.604Z,149435.03
2023-01-30T08:28:21.453Z,149452.66
2023-01-30T08:30:48.471Z,149416.16
2023-01-30T08:33:15.187Z,149398.56
2023-01-30T08:35:41.434Z,149406.09
2023-01-30T08:38:08.385Z,149419.94
2023-01-30T08:40:35.518Z,149408.59
2023-01-30T08:43:01.533Z,149382.19
2023-01-30T08:45:27.992Z,149404.84
2023-01-30T08:47:58.143Z,149398.56
2023-01-30T08:50:24.060Z,149396.06
2023-01-30T08:52:50.020Z,149431.28
2023-01-30T08:55:16.084Z,149426.22
2023-01-30T08:57:41.911Z,149419.94
2023-01-30T09:00:08.563Z,149422.44
2023-01-30T09:02:34.561Z,149460.19
2023-01-30T09:05:00.516Z,149429.97
2023-01-30T09:07:28.126Z,149450.16
2023-01-30T09:09:54.433Z,149447.59
2023-01-30T09:12:20.846Z,149484.06
2023-01-30T09:14:46.878Z,149466.50
2023-01-30T09:17:13.097Z,149441.31
2023-01-30T09:19:38.988Z,149431.28
2023-01-30T09:22:06.939Z,149442.56
2023-01-30T09:24:33.237Z,149476.53
2023-01-30T09:26:59.322Z,149456.41
2023-01-30T09:29:26.482Z,149433.78
2023-01-30T09:31:53.151Z,149436.28
2023-01-30T09:34:19.404Z,149435.03
2023-01-30T09:36:45.312Z,149413.66
2023-01-30T09:39:11.142Z,149407.34
2023-01-30T09:42:04.751Z,149433.78
2023-01-30T09:45:01.907Z,149431.28
2023-01-30T09:47:43.672Z,149407.34
2023-01-30T09:50:33.672Z,149408.59
2023-01-30T09:53:39.455Z,149421.19
2023-01-30T09:56:05.308Z,149401.06
2023-01-30T09:59:01.100Z,149427.47
2023-01-30T10:01:39.875Z,149440.06
2023-01-30T10:04:33.605Z,149445.06
2023-01-30T10:07:19.559Z,149443.81
2023-01-30T10:09:54.697Z,149458.94
2023-01-30T10:12:50.866Z,149479.06
2023-01-30T10:15:34.573Z,149424.94
2023-01-30T10:18:22.011Z,149414.91
2023-01-30T10:21:26.287Z,149413.66
2023-01-30T10:24:07.187Z,149456.41
2023-01-30T10:26:33.431Z,149440.06
2023-01-30T10:29:13.368Z,149471.53
2023-01-30T10:31:55.635Z,149519.31
2023-01-30T10:34:41.196Z,149509.28
2023-01-30T10:37:47.505Z,149503.00
2023-01-30T10:40:41.465Z,149481.56
2023-01-30T10:43:20.518Z,149475.28
2023-01-30T10:46:06.595Z,149440.06
2023-01-30T10:48:51.058Z,149411.09
2023-01-30T10:51:31.560Z,149406.09
2023-01-30T10:54:04.495Z,149451.41
2023-01-30T10:56:40.433Z,149423.69
2023-01-30T10:59:21.838Z,149402.31
2023-01-30T11:01:55.989Z,149416.16
2023-01-30T11:04:41.867Z,149411.09
2023-01-30T11:07:08.448Z,149423.69
2023-01-30T11:09:43.013Z,149416.16
2023-01-30T11:12:08.939Z,149408.59
2023-01-30T11:14:51.824Z,149422.44
2023-01-30T11:17:19.580Z,149435.03
2023-01-30T11:19:53.714Z,149403.56
2023-01-30T11:22:19.833Z,149414.91
2023-01-30T11:24:45.903Z,149452.66
2023-01-30T11:27:20.792Z,149453.91
2023-01-30T11:29:47.669Z,149466.50
2023-01-30T11:32:26.264Z,149423.69
2023-01-30T11:35:07.475Z,149475.28
2023-01-30T11:37:36.948Z,149462.69
2023-01-30T11:40:20.639Z,149458.94
2023-01-30T11:42:49.321Z,149466.50
2023-01-30T11:45:18.518Z,149443.81
2023-01-30T11:47:57.676Z,149442.56
2023-01-30T11:50:33.358Z,149435.03
2023-01-30T11:53:04.521Z,149437.53
2023-01-30T11:55:39.657Z,149450.16
2023-01-30T11:58:08.692Z,149460.19
2023-01-30T12:00:45.688Z,149472.78
2023-01-30T12:03:15.511Z,149435.03
2023-01-30T12:05:45.060Z,149458.94
2023-01-30T12:08:42.334Z,149471.53
2023-01-30T12:11:44.370Z,149519.31
2023-01-30T12:14:37.043Z,149529.41
2023-01-30T12:17:20.679Z,149536.94
2023-01-30T12:20:12.212Z,149559.63
2023-01-30T12:22:45.992Z,149510.53
2023-01-30T12:25:39.387Z,149528.13
2023-01-30T12:28:32.841Z,149562.13
2023-01-30T12:31:26.451Z,149572.16
2023-01-30T12:33:54.683Z,149521.88
2023-01-30T12:36:36.207Z,149485.38
2023-01-30T12:39:05.302Z,149435.03
2023-01-30T12:41:55.779Z,149346.97
2023-01-30T12:44:26.972Z,149279.06
2023-01-30T12:47:23.520Z,149305.50
2023-01-30T12:49:55.216Z,149304.19
2023-01-30T12:52:39.447Z,149316.78
2023-01-30T12:55:44.370Z,149463.94
2023-01-30T12:58:14.751Z,149500.44
2023-01-30T13:01:21.566Z,149526.88
2023-01-30T13:04:01.255Z,149470.28
2023-01-30T13:06:57.285Z,149503.00
2023-01-30T13:09:29.292Z,149470.28
2023-01-30T13:12:10.391Z,149462.69
2023-01-30T13:14:58.358Z,149479.06
2023-01-30T13:17:39.331Z,149581.00
2023-01-30T13:20:23.344Z,149587.28
2023-01-30T13:23:03.731Z,149611.22
2023-01-30T13:25:42.214Z,149536.94
2023-01-30T13:28:20.437Z,149593.59
2023-01-30T13:30:50.843Z,149618.75
2023-01-30T13:33:33.014Z,149594.88
2023-01-30T13:36:06.449Z,149568.41
2023-01-30T13:38:35.599Z,149579.75
2023-01-30T13:41:03.057Z,149567.16
2023-01-30T13:43:35.799Z,149535.66
2023-01-30T13:46:09.491Z,149555.81
2023-01-30T13:48:54.856Z,149562.13
2023-01-30T13:51:36.100Z,149554.56
2023-01-30T13:54:38.923Z,149554.56
2023-01-30T13:57:24.947Z,149549.53
2023-01-30T13:59:53.726Z,149557.09
2023-01-30T14:02:24.212Z,149583.50
2023-01-30T14:04:59.999Z,149565.91
2023-01-30T14:07:29.312Z,149569.66
2023-01-30T14:10:10.955Z,149570.91
2023-01-30T14:12:45.158Z,149573.44
2023-01-30T14:15:18.392Z,149582.25
2023-01-30T14:18:18.987Z,149570.91
2023-01-30T14:20:47.095Z,149554.56
2023-01-30T14:23:18.679Z,149572.16
2023-01-30T14:25:49.994Z,149609.97
2023-01-30T14:28:16.052Z,149609.97
2023-01-30T14:30:44.991Z,149622.53
2023-01-30T14:33:19.968Z,149641.41
2023-01-30T14:36:29.076Z,149625.03
2023-01-30T14:39:16.573Z,149607.41
2023-01-30T14:41:42.438Z,149617.50
2023-01-30T14:44:08.299Z,149606.16
2023-01-30T14:46:58.142Z,149583.50
2023-01-30T14:49:27.514Z,149602.41
2023-01-30T14:51:55.423Z,149597.38
2023-01-30T14:54:33.250Z,149592.34
2023-01-30T14:57:26.903Z,149568.41
2023-01-30T15:00:14.889Z,149563.38
2023-01-30T15:02:48.708Z,149579.75
2023-01-30T15:05:26.470Z,149609.97
2023-01-30T15:08:13.990Z,149599.88
2023-01-30T15:11:14.153Z,149597.38
2023-01-30T15:14:07.019Z,149593.59
2023-01-30T15:16:36.027Z,149583.50
2023-01-30T15:19:52.114Z,149567.16
2023-01-30T15:22:26.940Z,149573.44
2023-01-30T15:25:18.523Z,149603.66
2023-01-30T15:28:02.826Z,149592.34
2023-01-30T15:30:56.402Z,149573.44
2023-01-30T15:33:31.093Z,149570.91
2023-01-30T15:35:57.988Z,149579.75
2023-01-30T15:38:32.395Z,149588.53
2023-01-30T15:41:04.324Z,149569.66
2023-01-30T15:43:33.060Z,149569.66
2023-01-30T15:46:15.579Z,149552.03
2023-01-30T15:49:14.219Z,149539.47
2023-01-30T15:51:40.277Z,149563.38
2023-01-30T15:54:10.812Z,149555.81
2023-01-30T15:56:38.979Z,149539.47
2023-01-30T15:59:06.373Z,149525.63
2023-01-30T16:01:32.549Z,149521.88
2023-01-30T16:03:59.689Z,149528.13
2023-01-30T16:06:30.266Z,149489.16
2023-01-30T16:09:17.903Z,149486.63
2023-01-30T16:11:43.896Z,149463.94
2023-01-30T16:14:18.863Z,149481.56
2023-01-30T16:16:51.073Z,149472.78
2023-01-30T16:19:30.210Z,149487.88
2023-01-30T16:22:00.931Z,149467.75
2023-01-30T16:24:31.209Z,149477.78
2023-01-30T16:27:01.758Z,149489.16
2023-01-30T16:29:31.334Z,149497.94
2023-01-30T16:31:57.696Z,149500.44
2023-01-30T16:34:36.508Z,149519.31
2023-01-30T16:37:20.295Z,149492.91
2023-01-30T16:40:13.091Z,149531.91
2023-01-30T16:42:39.551Z,149535.66
2023-01-30T16:45:15.421Z,149494.16
2023-01-30T16:47:41.591Z,149504.25
2023-01-30T16:50:20.528Z,149515.53
2023-01-30T16:52:52.272Z,149519.31
2023-01-30T16:55:24.201Z,149519.31
2023-01-30T16:57:54.032Z,149542.00
2023-01-30T17:00:38.173Z,149524.38
2023-01-30T17:03:25.595Z,149531.91
2023-01-30T17:05:52.013Z,149521.88
2023-01-30T17:08:59.094Z,149544.50
2023-01-30T17:11:40.756Z,149533.16
2023-01-30T17:14:29.996Z,149530.66
2023-01-30T17:17:03.590Z,149533.16
2023-01-30T17:19:29.782Z,149538.22
2023-01-30T17:21:58.069Z,149554.56
2023-01-30T17:24:24.906Z,149521.88
2023-01-30T17:26:53.938Z,149514.28
2023-01-30T17:29:41.026Z,149531.91
2023-01-30T17:32:10.947Z,149544.50
2023-01-30T17:34:40.318Z,149526.88
2023-01-30T17:37:19.566Z,149499.19
2023-01-30T17:39:46.170Z,149514.28
2023-01-30T17:42:13.311Z,149508.00
2023-01-30T17:44:40.014Z,149486.63
2023-01-30T17:47:06.283Z,149476.53
2023-01-30T17:49:32.535Z,149482.81
2023-01-30T17:52:01.182Z,149497.94
2023-01-30T17:54:29.295Z,149492.91
2023-01-30T17:57:00.104Z,149526.88
2023-01-30T17:59:26.191Z,149530.66
2023-01-30T18:01:53.199Z,149516.81
2023-01-30T18:04:19.803Z,149520.63
2023-01-30T18:06:49.774Z,149528.13
2023-01-30T18:09:21.024Z,149508.00
2023-01-30T18:11:47.716Z,149505.50
2023-01-30T18:14:13.989Z,149533.16
2023-01-30T18:16:40.320Z,149506.75
2023-01-30T18:19:10.824Z,149531.91
2023-01-30T18:21:39.354Z,149538.22
2023-01-30T18:24:06.728Z,149520.63
2023-01-30T18:26:33.012Z,149519.31
2023-01-30T18:28:59.169Z,149504.25
2023-01-30T18:31:28.797Z,149511.78
2023-01-30T18:33:55.103Z,149516.81
2023-01-30T18:36:21.875Z,149515.53
2023-01-30T18:38:48.317Z,149521.88
2023-01-30T18:41:20.059Z,149505.50
2023-01-30T18:43:47.828Z,149521.88
2023-01-30T18:46:17.171Z,149499.19
2023-01-30T18:48:44.990Z,149499.19
2023-01-30T18:51:20.279Z,149481.56
2023-01-30T18:53:48.538Z,149495.41
2023-01-30T18:56:26.249Z,149489.16
2023-01-30T18:58:54.318Z,149499.19
2023-01-30T19:01:23.817Z,149496.66
2023-01-30T19:03:54.043Z,149484.06
2023-01-30T19:06:20.318Z,149513.03
2023-01-30T19:08:46.538Z,149519.31
2023-01-30T19:11:34.071Z,149490.41
2023-01-30T19:14:01.038Z,149501.69
2023-01-30T19:16:29.780Z,149505.50
2023-01-30T19:18:56.451Z,149508.00
2023-01-30T19:21:23.856Z,149499.19
2023-01-30T19:23:50.569Z,149481.56
2023-01-30T19:26:18.237Z,149484.06
2023-01-30T19:28:44.925Z,149480.31
2023-01-30T19:31:14.035Z,149472.78
2023-01-30T19:33:44.334Z,149490.41
2023-01-30T19:36:15.956Z,149519.31
2023-01-30T19:38:43.751Z,149480.31
2023-01-30T19:41:11.455Z,149475.28
2023-01-30T19:43:38.297Z,149465.19
2023-01-30T19:46:05.741Z,149497.94
2023-01-30T19:48:32.506Z,149482.81
2023-01-30T19:51:04.755Z,149465.19
2023-01-30T19:53:32.946Z,149471.53
2023-01-30T19:55:59.139Z,149482.81
2023-01-30T19:58:25.368Z,149448.88
2023-01-30T20:00:51.710Z,149486.63
2023-01-30T20:03:17.783Z,149471.53
2023-01-30T20:05:44.706Z,149469.00
2023-01-30T20:08:25.611Z,149470.28
2023-01-30T20:11:18.282Z,149469.00
2023-01-30T20:13:45.676Z,149482.81
2023-01-30T20:16:15.251Z,149479.06
2023-01-30T20:18:41.508Z,149450.16
2023-01-30T20:21:09.694Z,149471.53
2023-01-30T20:23:36.411Z,149472.78
2023-01-30T20:26:07.285Z,149447.59
2023-01-30T20:28:33.975Z,149451.41
2023-01-30T20:31:00.464Z,149452.66
2023-01-30T20:33:28.669Z,149438.81
2023-01-30T20:36:00.497Z,149441.31
2023-01-30T20:38:30.207Z,149432.53
2023-01-30T20:41:06.580Z,149447.59
2023-01-30T20:43:33.636Z,149438.81
2023-01-30T20:46:07.968Z,149452.66
2023-01-30T20:48:35.175Z,149418.69
2023-01-30T20:51:03.103Z,149409.84
2023-01-30T20:53:29.626Z,149407.34
2023-01-30T20:55:59.717Z,149421.19
2023-01-30T20:58:27.525Z,149455.16
2023-01-30T21:00:54.185Z,149431.28
2023-01-30T21:03:23.675Z,149401.06
2023-01-30T21:05:59.847Z,149442.56
2023-01-30T21:08:26.950Z,149411.09
2023-01-30T21:10:54.671Z,149390.97
2023-01-30T21:13:21.156Z,149396.06
2023-01-30T21:15:48.169Z,149403.56
2023-01-30T21:18:14.272Z,149437.53
2023-01-30T21:20:47.016Z,149396.06
2023-01-30T21:23:14.060Z,149387.22
2023-01-30T21:25:40.219Z,149401.06
2023-01-30T21:28:06.353Z,149393.50
2023-01-30T21:30:35.160Z,149383.47
2023-01-30T21:33:01.257Z,149389.72
2023-01-30T21:35:27.346Z,149390.97
2023-01-30T21:38:12.015Z,149389.72
2023-01-30T21:40:56.738Z,149384.72
2023-01-30T21:43:22.993Z,149358.28
2023-01-30T21:45:49.164Z,149377.19
2023-01-30T21:48:15.283Z,149380.94
2023-01-30T21:50:41.266Z,149367.09
2023-01-30T21:53:07.245Z,149350.75
2023-01-30T21:55:33.491Z,149373.38
2023-01-30T21:57:59.536Z,149374.63
2023-01-30T22:00:25.698Z,149387.22
2023-01-30T22:02:51.608Z,149389.72
2023-01-30T22:05:17.983Z,149378.44
2023-01-30T22:07:44.053Z,149378.44
2023-01-30T22:10:10.470Z,149373.38
2023-01-30T22:12:39.867Z,149353.25
2023-01-30T22:15:07.694Z,149360.81
2023-01-30T22:17:33.813Z,149373.38
2023-01-30T22:19:59.901Z,149355.75
2023-01-30T22:22:26.244Z,149379.69
2023-01-30T22:24:52.411Z,149388.47
2023-01-30T22:27:18.312Z,149407.34
2023-01-30T22:29:44.150Z,149399.81
2023-01-30T22:32:10.208Z,149398.56
2023-01-30T22:34:36.735Z,149378.44
2023-01-30T22:37:02.676Z,149375.88
2023-01-30T22:39:28.566Z,149374.63
2023-01-30T22:41:54.997Z,149388.47
2023-01-30T22:44:21.625Z,149421.19
2023-01-30T22:46:50.802Z,149353.25
2023-01-30T22:49:16.652Z,149358.28
2023-01-30T22:51:43.003Z,149363.34
2023-01-30T22:54:15.103Z,149358.28
2023-01-30T22:56:43.482Z,149340.66
2023-01-30T22:59:09.934Z,149335.63
2023-01-30T23:01:46.890Z,149341.97
2023-01-30T23:04:21.373Z,149343.22
2023-01-30T23:06:48.256Z,149344.47
2023-01-30T23:09:17.233Z,149348.22
2023-01-30T23:12:08.519Z,149355.75
2023-01-30T23:14:35.731Z,149348.22
2023-01-30T23:17:25.284Z,149340.66
2023-01-30T23:19:51.936Z,149315.53
2023-01-30T23:22:18.093Z,149323.06
2023-01-30T23:24:44.032Z,149321.78
2023-01-30T23:27:09.840Z,149340.66
2023-01-30T23:29:36.528Z,149330.63
2023-01-30T23:32:02.594Z,149343.22
2023-01-30T23:34:28.556Z,149329.38
2023-01-30T23:36:54.396Z,149343.22
2023-01-30T23:39:20.223Z,149309.25
2023-01-30T23:41:46.048Z,149305.50
2023-01-30T23:44:11.909Z,149319.28
2023-01-30T23:46:41.634Z,149310.50
2023-01-30T23:49:13.544Z,149314.28
2023-01-30T23:51:41.694Z,149331.88
2023-01-30T23:54:08.838Z,149315.53
2023-01-30T23:56:37.553Z,149350.75
2023-01-30T23:59:04.681Z,149353.25
